Time;durP1;ratioP1;P1;durP2;ratioP2;P2;SDS_P1;SDS_P2;PMS_P1;PMS_P2;Temp;Humidity;BMP_temperature;BMP_pressure;BME280_temperature;BME280_humidity;BME280_pressure;Samples;Min_cycle;Max_cycle;Signal;HPM_P1;HPM_P2
2022/04/10 00:00:43;;;;;;;0.20;0.20;;;;;;;11.71;53.97;99524.56;5034203;28;20099;-77
2022/04/10 00:03:09;;;;;;;0.20;0.20;;;;;;;11.67;54.47;99520.97;5036869;28;20014;-77
2022/04/10 00:05:38;;;;;;;0.20;0.20;;;;;;;11.76;54.57;99527.00;5036365;28;20021;-77
2022/04/10 00:08:04;;;;;;;0.20;0.20;;;;;;;11.69;55.31;99513.03;5037273;28;20009;-77
2022/04/10 00:10:30;;;;;;;0.20;0.20;;;;;;;11.68;55.71;99512.22;5036402;28;20044;-77
2022/04/10 00:12:55;;;;;;;0.20;0.20;;;;;;;11.61;56.07;99505.78;5036831;28;20013;-78
2022/04/10 00:15:21;;;;;;;0.20;0.20;;;;;;;11.38;56.06;99506.78;5036617;28;20086;-78
2022/04/10 00:17:47;;;;;;;0.20;0.20;;;;;;;11.34;56.48;99505.97;5035638;28;20046;-77
2022/04/10 00:20:13;;;;;;;0.20;0.20;;;;;;;11.50;55.22;99509.31;5036101;28;20075;-77
2022/04/10 00:22:40;;;;;;;0.20;0.20;;;;;;;11.51;56.40;99508.13;5035538;28;20033;-78
2022/04/10 00:25:07;;;;;;;0.20;0.20;;;;;;;11.12;57.31;99467.97;5036480;28;20030;-78
2022/04/10 00:27:33;;;;;;;0.20;0.20;;;;;;;11.28;57.73;99504.72;5020853;28;20040;-78
2022/04/10 00:29:59;;;;;;;0.20;0.20;;;;;;;11.15;58.11;99501.44;5036222;28;20057;-77
2022/04/10 00:32:28;;;;;;;0.20;0.20;;;;;;;11.02;58.37;99489.78;5036557;28;20053;-77
2022/04/10 00:34:55;;;;;;;0.20;0.20;;;;;;;10.97;59.19;99490.13;5036877;28;20033;-77
2022/04/10 00:37:21;;;;;;;0.20;0.20;;;;;;;10.94;59.70;99482.53;5036877;28;20044;-79
2022/04/10 00:39:47;;;;;;;0.20;0.20;;;;;;;10.86;59.69;99480.84;5037081;28;20038;-78
2022/04/10 00:42:12;;;;;;;0.20;0.20;;;;;;;10.79;60.10;99479.97;5035839;28;20034;-77
2022/04/10 00:44:38;;;;;;;0.20;0.20;;;;;;;10.66;60.81;99477.47;5034991;28;20056;-78
2022/04/10 00:47:05;;;;;;;0.20;0.20;;;;;;;10.70;60.57;99477.50;5036727;28;20200;-77
2022/04/10 00:49:31;;;;;;;0.20;0.20;;;;;;;10.87;60.67;99476.91;5036200;28;20010;-78
2022/04/10 00:52:02;;;;;;;0.30;0.30;;;;;;;10.75;61.34;99471.59;5036223;28;20032;-79
2022/04/10 00:54:30;;;;;;;0.20;0.20;;;;;;;10.78;60.95;99479.19;5035270;28;20045;-78
2022/04/10 00:56:57;;;;;;;0.20;0.20;;;;;;;10.69;61.75;99475.88;5035544;28;20052;-78
2022/04/10 00:59:23;;;;;;;0.20;0.20;;;;;;;10.75;61.33;99475.16;5036309;28;20432;-77
2022/04/10 01:01:49;;;;;;;0.20;0.20;;;;;;;10.74;61.77;99481.13;5034877;28;20014;-78
2022/04/10 01:04:16;;;;;;;0.20;0.20;;;;;;;10.80;60.91;99476.81;5035832;28;20094;-77
2022/04/10 01:06:47;;;;;;;0.20;0.20;;;;;;;10.68;61.91;99469.53;5036431;28;20029;-77
2022/04/10 01:09:13;;;;;;;0.20;0.20;;;;;;;10.71;62.20;99479.13;5034753;28;20045;-77
2022/04/10 01:11:40;;;;;;;0.20;0.20;;;;;;;10.69;61.51;99473.09;5036054;28;20029;-79
2022/04/10 01:14:06;;;;;;;0.20;0.20;;;;;;;10.77;61.38;99480.38;5035713;28;20089;-78
2022/04/10 01:16:33;;;;;;;0.20;0.20;;;;;;;10.79;61.46;99483.56;5036762;28;20022;-78
2022/04/10 01:19:02;;;;;;;0.20;0.20;;;;;;;10.78;61.75;99479.19;5035769;28;20029;-79
2022/04/10 01:21:32;;;;;;;0.20;0.20;;;;;;;10.94;61.43;99470.59;5019372;28;20014;-77
2022/04/10 01:23:58;;;;;;;0.22;0.22;;;;;;;10.99;61.95;99468.25;5036666;28;20037;-77
2022/04/10 01:26:25;;;;;;;0.20;0.20;;;;;;;11.10;61.96;99482.28;5036275;28;20034;-78
2022/04/10 01:29:08;;;;;;;0.20;0.20;;;;;;;11.08;61.82;99484.66;5036026;28;20045;-78
2022/04/10 01:31:39;;;;;;;0.20;0.20;;;;;;;11.07;61.81;99485.03;5035705;28;20506;-78
2022/04/10 01:34:08;;;;;;;0.20;0.20;;;;;;;11.00;62.23;99481.00;5036478;28;20017;-77
2022/04/10 01:36:35;;;;;;;0.20;0.20;;;;;;;10.97;62.72;99481.78;5036046;28;20038;-78
2022/04/10 01:39:03;;;;;;;0.20;0.20;;;;;;;11.18;62.82;99485.91;5036407;28;20465;-78
2022/04/10 01:41:30;;;;;;;0.20;0.20;;;;;;;11.23;62.86;99486.38;5019313;28;20053;-76
2022/04/10 01:43:57;;;;;;;0.20;0.20;;;;;;;11.21;62.71;99479.59;5035827;28;20049;-77
2022/04/10 01:46:24;;;;;;;0.20;0.20;;;;;;;11.18;62.44;99494.28;5035684;28;20049;-78
2022/04/10 01:48:49;;;;;;;0.20;0.20;;;;;;;11.19;62.39;99495.91;5035725;28;20021;-78
2022/04/10 01:51:15;;;;;;;0.20;0.20;;;;;;;11.09;62.49;99486.25;5034879;28;20018;-78
2022/04/10 01:53:42;;;;;;;0.20;0.20;;;;;;;10.92;62.84;99495.22;5034200;28;20018;-78
2022/04/10 01:56:09;;;;;;;0.20;0.20;;;;;;;10.78;63.84;99490.31;5035042;28;20531;-77
2022/04/10 01:58:37;;;;;;;0.20;0.20;;;;;;;10.79;64.22;99479.97;5035149;28;20026;-77
2022/04/10 02:01:04;;;;;;;0.20;0.20;;;;;;;10.76;64.66;99487.13;5034686;28;20018;-79
2022/04/10 02:03:29;;;;;;;0.20;0.20;;;;;;;10.77;63.05;99488.72;5034953;28;20010;-78
2022/04/10 02:05:55;;;;;;;0.20;0.20;;;;;;;10.73;64.03;99487.88;5034396;28;20026;-78
2022/04/10 02:08:22;;;;;;;0.25;0.25;;;;;;;10.77;64.63;99482.34;5035436;28;20389;-78
2022/04/10 02:10:47;;;;;;;0.20;0.20;;;;;;;10.97;64.87;99497.66;5035065;28;20064;-77
2022/04/10 02:13:13;;;;;;;0.20;0.20;;;;;;;10.84;65.17;99491.56;5035167;28;20034;-77
2022/04/10 02:15:39;;;;;;;0.20;0.20;;;;;;;10.95;65.78;99500.03;5035912;28;20017;-77
2022/04/10 02:18:06;;;;;;;0.20;0.20;;;;;;;10.88;65.16;99492.41;5035384;28;20041;-78
2022/04/10 02:20:32;;;;;;;0.20;0.20;;;;;;;10.76;64.69;99495.47;5034319;28;20097;-78
2022/04/10 02:22:59;;;;;;;0.20;0.20;;;;;;;10.85;64.85;99497.94;5034706;28;20045;-77
2022/04/10 02:25:25;;;;;;;0.20;0.20;;;;;;;10.92;65.35;99492.44;5035054;28;20072;-78
2022/04/10 02:27:51;;;;;;;0.20;0.20;;;;;;;10.89;64.71;99496.78;5034499;28;20506;-78
2022/04/10 02:30:18;;;;;;;0.20;0.20;;;;;;;10.92;64.70;99495.22;5035143;28;20034;-77
2022/04/10 02:32:44;;;;;;;0.20;0.20;;;;;;;11.01;64.78;99498.50;5034589;28;20057;-78
2022/04/10 02:35:09;;;;;;;0.20;0.20;;;;;;;11.06;64.49;99500.13;5034514;28;20097;-77
2022/04/10 02:37:38;;;;;;;0.20;0.20;;;;;;;10.92;63.53;99496.03;5034869;28;20124;-78
2022/04/10 02:40:06;;;;;;;0.20;0.20;;;;;;;11.12;63.45;99509.72;5035010;28;20018;-78
2022/04/10 02:42:33;;;;;;;0.20;0.20;;;;;;;11.07;64.65;99510.09;5034252;28;20437;-78
2022/04/10 02:45:02;;;;;;;0.20;0.20;;;;;;;11.09;64.44;99519.66;5033551;28;20034;-78
2022/04/10 02:47:30;;;;;;;0.20;0.20;;;;;;;10.97;64.83;99511.56;5035212;28;20013;-77
2022/04/10 02:49:56;;;;;;;0.20;0.20;;;;;;;10.97;64.73;99517.13;5034492;28;20105;-79
2022/04/10 02:52:22;;;;;;;0.20;0.20;;;;;;;10.97;64.42;99509.63;5034353;28;20025;-78
2022/04/10 02:54:48;;;;;;;0.20;0.20;;;;;;;10.97;64.94;99509.63;5033869;28;20052;-77
2022/04/10 02:57:13;;;;;;;0.20;0.20;;;;;;;10.91;64.72;99499.97;5034638;28;20037;-77
2022/04/10 02:59:39;;;;;;;0.20;0.20;;;;;;;10.95;65.63;99505.59;5018019;28;20049;-78
2022/04/10 03:02:05;;;;;;;0.20;0.20;;;;;;;10.99;67.13;99510.03;5035108;28;20037;-79
2022/04/10 03:04:31;;;;;;;0.20;0.20;;;;;;;11.07;68.43;99507.28;5035261;28;20038;-79
2022/04/10 03:06:57;;;;;;;0.20;0.20;;;;;;;11.01;68.70;99510.44;5034705;28;20066;-78
2022/04/10 03:09:25;;;;;;;0.20;0.20;;;;;;;10.93;69.03;99517.13;5034921;28;20017;-78
2022/04/10 03:11:51;;;;;;;0.20;0.20;;;;;;;10.88;69.83;99517.47;5035643;28;20037;-80
2022/04/10 03:14:17;;;;;;;0.20;0.20;;;;;;;10.81;71.40;99522.94;5035462;28;20034;-79
2022/04/10 03:16:43;;;;;;;0.30;0.30;;;;;;;10.71;73.31;99506.94;5034701;28;20022;-79
2022/04/10 03:19:09;;;;;;;0.20;0.20;;;;;;;10.78;74.82;99518.13;5035220;28;20022;-78
2022/04/10 03:21:35;;;;;;;0.28;0.28;;;;;;;10.61;75.32;99513.19;5035228;28;20038;-78
2022/04/10 03:24:01;;;;;;;0.20;0.20;;;;;;;10.64;75.94;99524.31;5034370;28;20491;-78
2022/04/10 03:26:28;;;;;;;0.20;0.20;;;;;;;10.56;77.18;99510.72;5034699;28;20029;-78
2022/04/10 03:28:53;;;;;;;0.20;0.20;;;;;;;10.64;76.81;99526.31;5034335;28;20029;-78
2022/04/10 03:31:20;;;;;;;0.20;0.20;;;;;;;10.55;76.28;99526.63;5034395;28;20038;-78
2022/04/10 03:33:47;;;;;;;0.20;0.20;;;;;;;10.48;76.88;99530.09;5035089;28;20137;-78
2022/04/10 03:36:13;;;;;;;0.20;0.20;;;;;;;10.48;78.13;99527.31;5021423;28;20016;-78
2022/04/10 03:38:39;;;;;;;0.20;0.20;;;;;;;10.36;78.51;99527.56;5039135;28;20121;-77
2022/04/10 03:41:05;;;;;;;0.20;0.20;;;;;;;10.29;78.74;99524.69;5038583;28;20092;-78
2022/04/10 03:43:32;;;;;;;0.20;0.20;;;;;;;10.23;79.20;99517.84;5038991;28;20014;-79
2022/04/10 03:46:01;;;;;;;0.20;0.20;;;;;;;10.38;79.47;99530.75;5039582;28;20037;-78
2022/04/10 03:48:28;;;;;;;0.20;0.20;;;;;;;10.48;79.58;99535.66;5039152;28;20026;-78
2022/04/10 03:50:53;;;;;;;0.20;0.20;;;;;;;10.39;79.39;99537.94;5038520;28;20017;-77
2022/04/10 03:53:19;;;;;;;0.30;0.30;;;;;;;10.40;80.09;99547.88;5038406;28;20045;-78
2022/04/10 03:55:45;;;;;;;0.30;0.30;;;;;;;10.44;80.43;99548.72;5038782;28;20021;-77
2022/04/10 03:58:11;;;;;;;0.20;0.20;;;;;;;10.42;81.10;99553.06;5039051;28;20018;-77
2022/04/10 04:00:36;;;;;;;0.20;0.20;;;;;;;10.28;80.88;99550.91;5038560;28;20026;-78
2022/04/10 04:03:02;;;;;;;0.20;0.20;;;;;;;10.25;81.16;99568.31;5038620;28;20017;-77
2022/04/10 04:05:28;;;;;;;0.20;0.20;;;;;;;10.20;81.40;99565.84;5021979;28;20048;-78
2022/04/10 04:07:54;;;;;;;0.20;0.20;;;;;;;10.19;81.34;99558.69;5021098;28;20038;-78
2022/04/10 04:10:20;;;;;;;0.20;0.20;;;;;;;10.12;81.24;99569.66;5037865;28;20045;-78
2022/04/10 04:12:46;;;;;;;0.20;0.20;;;;;;;10.08;80.84;99555.75;5038619;28;20018;-80
2022/04/10 04:15:12;;;;;;;0.20;0.20;;;;;;;9.84;79.23;99553.38;5037861;28;20040;-77
2022/04/10 04:17:38;;;;;;;0.20;0.20;;;;;;;9.82;79.36;99567.66;5038206;28;20022;-79
2022/04/10 04:20:08;;;;;;;0.20;0.20;;;;;;;9.84;79.02;99581.97;5037493;28;20014;-77
2022/04/10 04:22:34;;;;;;;0.20;0.20;;;;;;;9.95;79.80;99590.47;5037930;28;20081;-80
2022/04/10 04:25:00;;;;;;;0.20;0.20;;;;;;;10.00;80.47;99603.25;5037152;28;20030;-78
2022/04/10 04:27:26;;;;;;;0.20;0.20;;;;;;;10.00;81.12;99601.25;5037305;28;20089;-78
2022/04/10 04:29:51;;;;;;;0.20;0.20;;;;;;;10.16;80.93;99609.44;5038211;28;20098;-81
2022/04/10 04:32:17;;;;;;;0.20;0.20;;;;;;;10.17;80.60;99611.06;5037794;28;20204;-80
2022/04/10 04:34:43;;;;;;;0.20;0.20;;;;;;;10.22;80.57;99614.31;5038160;28;20038;-82
2022/04/10 04:37:09;;;;;;;0.20;0.20;;;;;;;10.25;80.39;99618.38;5037366;28;20040;-83
2022/04/10 04:39:35;;;;;;;0.20;0.20;;;;;;;10.29;79.51;99619.22;5037131;28;20093;-81
2022/04/10 04:42:01;;;;;;;0.20;0.20;;;;;;;10.19;79.69;99620.63;5037647;28;20030;-79
2022/04/10 04:44:30;;;;;;;0.20;0.20;;;;;;;10.19;80.15;99619.84;5019341;28;20018;-80
2022/04/10 04:46:57;;;;;;;0.20;0.20;;;;;;;10.25;79.02;99623.94;5035885;28;20030;-78
2022/04/10 04:49:23;;;;;;;0.20;0.20;;;;;;;10.28;78.11;99617.63;5037652;28;20038;-79
2022/04/10 04:51:48;;;;;;;0.20;0.20;;;;;;;10.24;78.63;99622.34;5036429;28;20056;-78
2022/04/10 04:54:14;;;;;;;0.20;0.20;;;;;;;10.18;78.54;99634.91;5037201;28;20014;-77
2022/04/10 04:56:39;;;;;;;0.20;0.20;;;;;;;10.20;79.27;99633.34;5038405;28;20042;-78
2022/04/10 04:59:05;;;;;;;0.28;0.28;;;;;;;10.26;79.02;99633.88;5037454;28;20044;-76
2022/04/10 05:01:31;;;;;;;0.20;0.20;;;;;;;10.31;79.88;99635.53;5037837;28;20076;-77
2022/04/10 05:03:56;;;;;;;0.20;0.20;;;;;;;10.30;79.64;99626.38;5037669;28;20053;-79
2022/04/10 05:06:22;;;;;;;0.20;0.20;;;;;;;10.29;80.31;99635.91;5037285;28;20078;-79
2022/04/10 05:08:47;;;;;;;0.20;0.20;;;;;;;10.29;80.66;99647.03;5036998;28;20034;-77
2022/04/10 05:11:14;;;;;;;0.20;0.20;;;;;;;10.24;80.93;99644.56;5036964;28;20048;-78
2022/04/10 05:13:41;;;;;;;0.20;0.20;;;;;;;10.26;81.46;99647.78;5036899;28;20026;-78
2022/04/10 05:16:07;;;;;;;0.20;0.20;;;;;;;10.31;81.92;99650.22;5020238;28;20037;-78
2022/04/10 05:18:35;;;;;;;0.20;0.20;;;;;;;10.33;81.91;99656.22;5036063;28;20017;-77
2022/04/10 05:21:04;;;;;;;0.20;0.20;;;;;;;10.36;81.33;99654.69;5035713;28;20025;-81
2022/04/10 05:23:30;;;;;;;0.20;0.20;;;;;;;10.22;80.89;99652.44;5036582;28;20037;-79
2022/04/10 05:25:55;;;;;;;0.20;0.20;;;;;;;10.25;80.45;99665.63;5035723;28;20024;-79
2022/04/10 05:28:24;;;;;;;0.20;0.20;;;;;;;10.31;80.62;99666.13;5036900;28;20403;-78
2022/04/10 05:30:49;;;;;;;0.20;0.20;;;;;;;10.28;80.21;99664.91;5039597;28;20022;-78
2022/04/10 05:33:15;;;;;;;0.20;0.20;;;;;;;10.27;80.15;99674.38;5040153;28;20025;-78
2022/04/10 05:35:41;;;;;;;0.20;0.20;;;;;;;10.23;80.81;99665.19;5039879;28;20021;-79
2022/04/10 05:38:06;;;;;;;0.20;0.20;;;;;;;10.29;80.81;99685.16;5039383;28;20093;-78
2022/04/10 05:40:32;;;;;;;0.20;0.20;;;;;;;10.32;81.01;99679.63;5038329;28;20053;-78
2022/04/10 05:42:58;;;;;;;0.25;0.25;;;;;;;10.32;80.33;99685.19;5038772;28;20021;-78
2022/04/10 05:45:26;;;;;;;0.20;0.20;;;;;;;10.32;80.25;99687.97;5040399;28;20033;-79
2022/04/10 05:47:52;;;;;;;0.20;0.20;;;;;;;10.47;80.41;99698.16;5040512;28;20037;-78
2022/04/10 05:50:18;;;;;;;0.20;0.20;;;;;;;10.54;79.74;99691.09;5038809;28;20021;-78
2022/04/10 05:52:48;;;;;;;0.20;0.20;;;;;;;10.67;79.96;99693.28;5040132;28;20060;-78
2022/04/10 05:55:15;;;;;;;0.20;0.20;;;;;;;10.68;77.92;99694.88;5039990;28;20048;-78
2022/04/10 05:57:42;;;;;;;0.20;0.20;;;;;;;10.64;78.49;99710.72;5039701;28;20093;-78
2022/04/10 06:00:13;;;;;;;0.20;0.20;;;;;;;10.69;78.43;99698.47;5039063;28;20042;-78
2022/04/10 06:02:40;;;;;;;0.20;0.20;;;;;;;10.68;77.46;99708.81;5039662;28;20041;-78
2022/04/10 06:05:06;;;;;;;0.20;0.20;;;;;;;10.70;77.03;99706.44;5038868;28;20016;-79
2022/04/10 06:07:32;;;;;;;0.20;0.20;;;;;;;10.73;76.55;99718.81;5040173;28;20024;-78
2022/04/10 06:09:58;;;;;;;0.25;0.25;;;;;;;10.82;75.59;99707.41;5039711;28;20025;-79
2022/04/10 06:12:28;;;;;;;0.20;0.20;;;;;;;10.86;75.85;99714.63;5039046;28;20048;-79
2022/04/10 06:14:58;;;;;;;0.20;0.20;;;;;;;10.94;75.53;99718.31;5038160;28;20032;-78
2022/04/10 06:17:23;;;;;;;0.20;0.20;;;;;;;10.97;74.99;99732.28;5062561;22;20087;-78
2022/04/10 06:30:25;;;;;;;0.20;0.20;;;;;;;11.00;75.17;99720.38;6265006;22;1529136;-78
2022/04/10 06:32:51;;;;;;;0.20;0.20;;;;;;;11.13;73.53;99746.03;6308669;22;20016;-77
2022/04/10 06:35:18;;;;;;;0.20;0.20;;;;;;;11.18;72.93;99764.38;6308351;22;19995;-77
2022/04/10 06:37:46;;;;;;;0.20;0.20;;;;;;;11.21;72.84;99758.84;6309305;22;20011;-78
2022/04/10 06:40:12;;;;;;;0.20;0.20;;;;;;;11.19;68.93;99761.22;6308426;22;19992;-77
2022/04/10 06:42:40;;;;;;;0.20;0.20;;;;;;;11.30;68.65;99771.72;6306635;22;20012;-78
2022/04/10 06:45:06;;;;;;;0.20;0.20;;;;;;;11.32;68.09;99774.91;6307903;22;20015;-76
2022/04/10 06:47:37;;;;;;;0.20;0.20;;;;;;;11.33;67.63;99777.31;6308938;22;20007;-77
2022/04/10 06:50:04;;;;;;;0.20;0.20;;;;;;;11.19;66.55;99780.72;6310769;22;19996;-78
2022/04/10 06:52:29;;;;;;;0.20;0.20;;;;;;;11.20;68.08;99795.44;6309786;22;20015;-77
2022/04/10 06:54:55;;;;;;;0.20;0.20;;;;;;;11.33;67.08;99796.00;6309697;22;20042;-77
2022/04/10 06:57:20;;;;;;;0.20;0.20;;;;;;;11.23;66.16;99794.69;6310211;22;20016;-77
2022/04/10 06:59:46;;;;;;;0.20;0.20;;;;;;;11.10;65.48;99796.91;6308655;22;20018;-78
2022/04/10 07:04:42;;;;;;;0.20;0.20;;;;;;;11.02;62.56;99772.91;6247080;23;20082;-76
2022/04/10 07:07:08;;;;;;;0.20;0.20;;;;;;;11.34;61.67;99784.47;6221495;22;20000;-77
2022/04/10 07:09:33;;;;;;;0.20;0.20;;;;;;;11.33;60.50;99813.53;6222507;23;20020;-78
2022/04/10 07:11:59;;;;;;;0.20;0.20;;;;;;;11.08;62.30;99810.41;6222237;22;20071;-76
2022/04/10 07:14:25;;;;;;;0.20;0.20;;;;;;;10.47;59.51;99814.97;6219920;23;20429;-76
2022/04/10 07:16:50;;;;;;;0.20;0.20;;;;;;;10.40;61.16;99825.19;6220002;23;19993;-78
2022/04/10 07:19:16;;;;;;;0.20;0.20;;;;;;;10.40;60.67;99837.13;6220519;23;20012;-76
2022/04/10 07:24:28;;;;;;;;;;;;;;;10.29;60.22;99841.69;6248094;22;20004;-77
2022/04/10 07:26:54;;;;;;;0.20;0.20;;;;;;;10.14;60.03;99854.47;6221316;23;19931;-76
2022/04/10 07:29:25;;;;;;;0.20;0.20;;;;;;;10.18;60.84;99862.88;6220518;23;20011;-76
2022/04/10 07:31:51;;;;;;;0.20;0.20;;;;;;;10.26;60.37;99864.66;6216295;23;20031;-76
2022/04/10 07:34:23;;;;;;;0.20;0.20;;;;;;;10.23;59.12;99873.72;6216404;22;20060;-77
2022/04/10 07:36:51;;;;;;;0.20;0.20;;;;;;;10.26;57.65;99872.19;6218533;23;19996;-78
2022/04/10 07:39:19;;;;;;;0.20;0.20;;;;;;;10.39;58.21;99874.44;6216722;23;20012;-78
2022/04/10 07:41:47;;;;;;;0.20;0.20;;;;;;;10.55;58.14;99881.88;6216984;23;20008;-79
2022/04/10 07:44:15;;;;;;;0.20;0.20;;;;;;;10.38;57.39;99883.94;6233023;22;20015;-78
2022/04/10 07:49:35;;;;;;;0.20;0.20;;;;;;;10.85;57.44;99902.28;6303301;22;20006;-78
2022/04/10 07:52:04;;;;;;;0.20;0.20;;;;;;;11.06;59.20;99906.59;6304344;22;20018;-78
2022/04/10 07:54:32;;;;;;;0.20;0.20;;;;;;;10.94;58.57;99927.88;6304343;22;19996;-77
2022/04/10 07:57:05;;;;;;;0.20;0.20;;;;;;;10.80;59.06;99926.81;6299324;22;20003;-77
2022/04/10 07:59:32;;;;;;;0.20;0.20;;;;;;;10.81;61.37;99934.00;6304329;22;19991;-79
2022/04/10 08:02:02;;;;;;;0.20;0.20;;;;;;;10.91;63.18;99947.28;6303575;22;20004;-79
2022/04/10 08:04:34;;;;;;;0.20;0.20;;;;;;;10.94;63.32;99954.91;6304901;22;20008;-78
2022/04/10 08:07:05;;;;;;;0.20;0.20;;;;;;;11.04;63.72;99953.50;6303593;22;20037;-79
2022/04/10 08:09:34;;;;;;;0.20;0.20;;;;;;;10.53;63.77;99887.00;6282473;22;20012;-78
2022/04/10 08:12:04;;;;;;;0.20;0.20;;;;;;;11.34;64.35;99956.38;6149022;22;20001;-78
2022/04/10 08:14:36;;;;;;;0.20;0.20;;;;;;;11.47;63.13;99960.56;6250245;22;20017;-78
2022/04/10 08:17:09;;;;;;;0.20;0.20;;;;;;;11.63;62.93;99963.19;6252479;22;19993;-78
2022/04/10 08:19:39;;;;;;;0.20;0.20;;;;;;;11.78;62.28;99959.44;6251524;22;20097;-78
2022/04/10 08:22:13;;;;;;;0.25;0.25;;;;;;;12.00;62.19;99972.53;6251260;22;20018;-78
2022/04/10 08:24:42;;;;;;;0.20;0.20;;;;;;;12.14;62.40;99968.31;6155891;22;20014;-79
2022/04/10 08:27:13;;;;;;;0.20;0.20;;;;;;;12.16;60.63;99971.53;6246459;22;19990;-78
2022/04/10 08:29:40;;;;;;;0.20;0.20;;;;;;;12.30;61.15;99968.91;6246537;22;20025;-78
2022/04/10 08:32:12;;;;;;;0.20;0.20;;;;;;;12.07;60.73;99963.44;6251572;22;20365;-77
2022/04/10 08:34:40;;;;;;;0.20;0.20;;;;;;;12.42;60.70;99971.47;6262495;22;20024;-77
2022/04/10 08:37:14;;;;;;;0.20;0.20;;;;;;;12.44;59.36;99974.69;6248496;22;20008;-78
2022/04/10 08:39:42;;;;;;;0.20;0.20;;;;;;;12.56;56.95;99977.22;6247517;22;20007;-77
2022/04/10 08:42:12;;;;;;;0.20;0.20;;;;;;;11.97;56.23;99978.84;6242022;22;20031;-78
2022/04/10 08:44:40;;;;;;;0.20;0.20;;;;;;;11.68;53.69;99968.47;6268396;22;20027;-79
2022/04/10 08:49:45;;;;;;;0.20;0.20;;;;;;;11.60;57.00;99920.16;6241409;22;20052;-80
2022/04/10 08:52:20;;;;;;;0.20;0.20;;;;;;;12.22;51.30;99917.03;6242303;23;20036;-77
2022/04/10 08:54:50;;;;;;;0.20;0.20;;;;;;;12.52;49.50;99911.41;6180832;23;20041;-78
2022/04/10 08:57:16;;;;;;;0.20;0.20;;;;;;;13.23;50.36;99953.19;6203574;23;20426;-77
2022/04/10 08:59:43;;;;;;;0.20;0.20;;;;;;;14.46;49.24;99987.88;6201967;23;20013;-77
2022/04/10 09:02:10;;;;;;;0.20;0.20;;;;;;;14.71;49.11;99974.00;6204481;23;20017;-76
2022/04/10 09:04:36;;;;;;;0.20;0.20;;;;;;;14.76;46.46;99993.22;6203051;23;20009;-76
2022/04/10 09:07:04;;;;;;;0.20;0.20;;;;;;;14.70;44.22;99994.00;6203464;23;20001;-80
2022/04/10 09:09:40;;;;;;;0.20;0.20;;;;;;;14.39;44.39;99991.47;6204346;23;20011;-76
2022/04/10 09:12:06;;;;;;;0.20;0.20;;;;;;;14.71;43.62;100001.22;6203838;23;20035;-77
2022/04/10 09:14:40;;;;;;;0.20;0.20;;;;;;;15.29;42.60;99992.53;6202166;23;19989;-76
2022/04/10 09:17:16;;;;;;;0.20;0.20;;;;;;;16.22;41.85;99990.41;6193602;23;20047;-77
2022/04/10 09:19:49;;;;;;;0.20;0.20;;;;;;;16.22;42.21;99993.22;6188779;23;20001;-81
2022/04/10 09:22:29;;;;;;;0.20;0.20;;;;;;;17.36;40.71;99991.81;6185925;23;20369;-80
2022/04/10 09:25:11;;;;;;;0.20;0.20;;;;;;;18.16;39.54;99987.88;6184955;23;20033;-84
2022/04/10 09:27:45;;;;;;;0.20;0.20;;;;;;;18.47;37.12;99997.19;6184710;23;20001;-79
2022/04/10 09:30:12;;;;;;;;;;;;;;;18.43;36.67;99995.63;6185122;23;20084;-78
2022/04/10 09:32:43;;;;;;;0.20;0.20;;;;;;;18.27;36.80;99990.59;6185346;23;19904;-84
2022/04/10 09:35:11;;;;;;;0.20;0.20;;;;;;;17.35;38.92;99997.88;6184701;23;20019;-80
2022/04/10 09:37:50;;;;;;;0.20;0.20;;;;;;;18.95;36.03;99984.09;6184492;23;20013;-81
2022/04/10 09:40:19;;;;;;;0.20;0.20;;;;;;;18.74;34.29;100000.09;6184615;23;20012;-83
2022/04/10 09:43:10;;;;;;;0.10;0.10;;;;;;;18.22;36.25;99994.69;6212745;23;20012;-79
2022/04/10 09:45:39;;;;;;;0.20;0.20;;;;;;;16.79;35.69;99974.56;6197832;23;20064;-79
2022/04/10 09:48:19;;;;;;;0.20;0.20;;;;;;;16.65;36.00;99992.25;6230074;23;20013;-78
2022/04/10 09:50:45;;;;;;;0.20;0.20;;;;;;;16.72;35.28;99997.84;6230858;23;20017;-78
2022/04/10 09:53:11;;;;;;;0.20;0.20;;;;;;;17.91;32.65;99993.00;6204916;23;20038;-78
2022/04/10 09:55:51;;;;;;;0.20;0.20;;;;;;;18.59;32.54;99990.22;6202145;23;20005;-79
2022/04/10 09:58:21;;;;;;;0.20;0.20;;;;;;;19.05;32.39;99994.44;6187678;23;20503;-82
2022/04/10 10:00:49;;;;;;;0.20;0.20;;;;;;;19.09;31.31;99998.78;6162062;23;20473;-82
2022/04/10 10:03:20;;;;;;;0.20;0.20;;;;;;;18.66;30.31;100000.59;6187919;23;20012;-79
2022/04/10 10:05:49;;;;;;;0.20;0.20;;;;;;;18.62;32.24;100002.66;6202259;23;20064;-78
2022/04/10 10:08:16;;;;;;;0.20;0.20;;;;;;;18.76;31.40;100010.94;6202593;23;19996;-79
2022/04/10 10:10:42;;;;;;;0.20;0.20;;;;;;;19.20;30.50;100015.56;6196097;23;20011;-84
2022/04/10 10:13:09;;;;;;;0.20;0.20;;;;;;;18.79;30.39;100008.06;6187179;23;20005;-79
2022/04/10 10:15:38;;;;;;;0.20;0.20;;;;;;;18.94;32.04;100017.13;6203136;23;20001;-79
2022/04/10 10:18:06;;;;;;;0.20;0.20;;;;;;;18.08;30.88;100016.56;6197580;23;20005;-78
2022/04/10 10:20:32;;;;;;;0.20;0.20;;;;;;;16.81;32.96;100023.50;6203354;23;20001;-78
2022/04/10 10:23:04;;;;;;;0.20;0.20;;;;;;;16.05;33.88;100015.75;6203558;23;20031;-78
2022/04/10 10:25:36;;;;;;;0.20;0.20;;;;;;;16.86;34.27;100011.03;6201920;23;20008;-78
2022/04/10 10:28:45;;;;;;;0.20;0.20;;;;;;;17.46;32.52;100026.72;6202950;23;20430;-78
2022/04/10 10:31:32;;;;;;;0.20;0.20;;;;;;;18.13;31.59;100025.34;6226646;23;20009;-78
2022/04/10 10:34:03;;;;;;;0.20;0.20;;;;;;;17.76;31.13;100024.09;6204292;23;20031;-79
2022/04/10 10:36:29;;;;;;;0.20;0.20;;;;;;;17.42;31.36;100028.78;6177385;23;20009;-78
2022/04/10 10:39:03;;;;;;;0.20;0.20;;;;;;;17.10;32.54;100024.16;6202113;23;20028;-79
2022/04/10 10:41:30;;;;;;;0.20;0.20;;;;;;;16.78;33.74;100024.34;6202719;23;20012;-78
2022/04/10 10:43:58;;;;;;;0.20;0.20;;;;;;;15.89;34.15;100019.78;6202220;23;19997;-79
2022/04/10 10:46:32;;;;;;;0.20;0.20;;;;;;;15.52;35.22;100016.56;6204626;23;20011;-78
2022/04/10 10:49:19;;;;;;;0.20;0.20;;;;;;;16.16;34.44;100031.34;6204199;23;20016;-78
2022/04/10 10:51:55;;;;;;;0.20;0.20;;;;;;;16.66;32.91;99966.56;6203908;23;20016;-78
2022/04/10 10:54:44;;;;;;;0.20;0.20;;;;;;;17.56;32.99;100020.19;6202430;23;20016;-79
2022/04/10 10:57:28;;;;;;;0.20;0.20;;;;;;;18.00;29.77;100013.81;6197606;23;20367;-79
2022/04/10 11:00:12;;;;;;;;;;;;;;;17.76;31.27;100020.47;6189535;23;20322;-79
2022/04/10 11:02:42;;;;;;;0.20;0.20;;;;;;;16.40;31.84;100029.66;6203139;23;19962;-78
2022/04/10 11:05:29;;;;;;;0.20;0.20;;;;;;;15.88;33.37;100020.97;6204570;23;19985;-78
2022/04/10 11:08:01;;;;;;;0.20;0.20;;;;;;;14.53;34.90;100031.94;6230107;23;20013;-78
2022/04/10 11:10:30;;;;;;;0.20;0.20;;;;;;;14.03;36.13;100018.47;6230090;23;20033;-78
2022/04/10 11:13:06;;;;;;;0.20;0.20;;;;;;;14.32;36.20;100027.00;6205332;23;20005;-79
2022/04/10 11:15:54;;;;;;;0.20;0.20;;;;;;;14.16;36.35;100028.13;6207549;23;20009;-79
2022/04/10 11:18:23;;;;;;;0.20;0.20;;;;;;;14.78;34.91;100018.03;6204849;23;20064;-80
2022/04/10 11:20:56;;;;;;;0.20;0.20;;;;;;;15.26;34.45;100023.34;6229565;23;20005;-78
2022/04/10 11:23:27;;;;;;;0.20;0.20;;;;;;;15.08;34.18;100024.13;6203358;23;20005;-78
2022/04/10 11:25:53;;;;;;;0.20;0.20;;;;;;;14.73;33.83;100022.00;6227252;23;20009;-77
2022/04/10 11:28:18;;;;;;;0.20;0.20;;;;;;;14.61;34.16;100008.38;6203116;23;20016;-77
2022/04/10 11:30:48;;;;;;;0.20;0.20;;;;;;;14.47;34.66;100041.88;6202715;23;20013;-79
2022/04/10 11:33:14;;;;;;;0.20;0.20;;;;;;;15.05;35.71;100038.91;6202657;23;20464;-76
2022/04/10 11:35:41;;;;;;;0.22;0.22;;;;;;;15.26;35.42;100028.94;6203238;23;20005;-77
2022/04/10 11:38:18;;;;;;;0.20;0.20;;;;;;;15.19;34.94;100044.56;6204074;23;20012;-77
2022/04/10 11:40:50;;;;;;;0.20;0.20;;;;;;;15.39;34.28;100046.97;6203927;23;20081;-77
2022/04/10 11:43:18;;;;;;;0.20;0.20;;;;;;;16.19;33.26;100043.75;6201850;23;20013;-80
2022/04/10 11:45:50;;;;;;;0.20;0.20;;;;;;;16.17;32.86;100057.41;6203659;23;20009;-77
2022/04/10 11:48:16;;;;;;;0.20;0.20;;;;;;;16.11;32.27;100017.72;6202923;23;20366;-77
2022/04/10 11:50:42;;;;;;;0.20;0.20;;;;;;;16.74;32.74;100057.28;6201681;23;20009;-78
2022/04/10 11:53:07;;;;;;;0.20;0.20;;;;;;;17.63;31.50;100062.38;6201815;23;20461;-77
2022/04/10 11:55:47;;;;;;;0.20;0.20;;;;;;;15.89;32.03;100069.47;6226977;23;20065;-78
2022/04/10 11:58:16;;;;;;;0.20;0.20;;;;;;;15.96;33.49;100070.25;6206957;23;20009;-78